Time;durP1;ratioP1;P1;durP2;ratioP2;P2;SDS_P1;SDS_P2;PMS_P1;PMS_P2;Temp;Humidity;BMP_temperature;BMP_pressure;BME280_temperature;BME280_humidity;BME280_pressure;Samples;Min_cycle;Max_cycle;Signal;HPM_P1;HPM_P2
2023/12/16 00:00:11;;;;;;;10.93;2.20;;;6.80;99.90;;;;;;5056247;28;20511;-72
2023/12/16 00:02:37;;;;;;;8.45;2.38;;;6.80;99.90;;;;;;5057985;28;20091;-71
2023/12/16 00:05:03;;;;;;;11.00;2.25;;;6.80;99.90;;;;;;5057355;28;20041;-72
2023/12/16 00:07:28;;;;;;;7.72;2.05;;;6.70;99.90;;;;;;5056749;28;20076;-72
2023/12/16 00:09:54;;;;;;;10.43;2.47;;;7.10;99.90;;;;;;5057664;28;20044;-71
2023/12/16 00:12:20;;;;;;;6.25;2.08;;;6.60;99.90;;;;;;5057524;28;20538;-72
2023/12/16 00:14:45;;;;;;;5.63;2.00;;;6.50;99.90;;;;;;5058110;28;20045;-72
2023/12/16 00:17:12;;;;;;;;;;;6.40;99.90;;;;;;5057341;28;20041;-72
2023/12/16 00:19:37;;;;;;;6.97;2.07;;;6.50;99.90;;;;;;5057568;28;19944;-72
2023/12/16 00:22:03;;;;;;;6.88;2.10;;;6.40;99.90;;;;;;5056197;28;20480;-72
2023/12/16 00:24:28;;;;;;;8.07;2.25;;;6.40;99.90;;;;;;5057534;28;20040;-72
2023/12/16 00:26:54;;;;;;;8.43;2.47;;;6.40;99.90;;;;;;5058891;28;20043;-72
2023/12/16 00:29:20;;;;;;;6.68;2.50;;;6.30;99.90;;;;;;5057698;28;20128;-72
2023/12/16 00:31:49;;;;;;;6.45;2.10;;;6.30;99.90;;;;;;5057394;28;20469;-72
2023/12/16 00:34:15;;;;;;;12.82;2.50;;;6.20;99.90;;;;;;5056766;28;20059;-72
2023/12/16 00:36:43;;;;;;;7.32;2.60;;;6.10;99.90;;;;;;5056705;28;20052;-72
2023/12/16 00:39:09;;;;;;;5.13;2.60;;;5.90;99.90;;;;;;5057201;28;20063;-72
2023/12/16 00:41:35;;;;;;;11.07;2.90;;;5.90;99.90;;;;;;5057174;28;20044;-72
2023/12/16 00:44:00;;;;;;;8.77;2.55;;;6.20;99.90;;;;;;5056404;28;20087;-72
2023/12/16 00:46:26;;;;;;;8.95;2.40;;;5.80;99.90;;;;;;5057348;28;20033;-72
2023/12/16 00:48:52;;;;;;;;;;;5.80;99.90;;;;;;5058030;28;20403;-72
2023/12/16 00:51:20;;;;;;;7.75;2.22;;;6.10;99.90;;;;;;5056914;28;19960;-71
2023/12/16 00:53:45;;;;;;;9.25;2.58;;;5.80;99.90;;;;;;5057563;28;20519;-72
2023/12/16 00:56:11;;;;;;;6.88;2.38;;;5.70;99.90;;;;;;5056298;28;20053;-71
2023/12/16 00:58:36;;;;;;;11.88;2.50;;;5.60;99.90;;;;;;5057102;28;20036;-71
2023/12/16 01:01:02;;;;;;;6.53;2.75;;;5.50;99.90;;;;;;5053016;28;20041;-71
2023/12/16 01:03:28;;;;;;;;;;;5.40;99.90;;;;;;5054835;28;20506;-72
2023/12/16 01:05:53;;;;;;;10.10;3.10;;;5.30;99.90;;;;;;5055168;28;20012;-72
2023/12/16 01:08:19;;;;;;;7.57;2.00;;;5.30;99.90;;;;;;5053545;28;20070;-72
2023/12/16 01:10:44;;;;;;;;;;;5.30;99.90;;;;;;5053953;28;20063;-73
2023/12/16 01:13:10;;;;;;;10.57;2.50;;;5.30;99.90;;;;;;5053604;28;19928;-73
2023/12/16 01:15:36;;;;;;;;;;;5.30;99.90;;;;;;5054257;28;20045;-73
2023/12/16 01:18:02;;;;;;;10.77;3.20;;;5.30;99.90;;;;;;5052762;28;19931;-73
2023/12/16 01:20:27;;;;;;;10.35;2.58;;;5.20;99.90;;;;;;5053679;28;20049;-73
2023/12/16 01:22:53;;;;;;;;;;;5.30;99.90;;;;;;5054359;28;20045;-73
2023/12/16 01:25:19;;;;;;;8.50;2.38;;;5.20;99.90;;;;;;5053293;28;19925;-73
2023/12/16 01:27:45;;;;;;;8.57;2.70;;;6.30;99.90;;;;;;5053520;28;20041;-73
2023/12/16 01:30:11;;;;;;;12.95;2.58;;;5.20;99.90;;;;;;5052973;28;20412;-73
2023/12/16 01:32:37;;;;;;;8.18;2.50;;;5.20;99.90;;;;;;5052481;28;20049;-73
2023/12/16 01:35:03;;;;;;;6.35;2.35;;;5.60;99.90;;;;;;5052440;28;20053;-73
2023/12/16 01:37:29;;;;;;;11.93;2.22;;;5.30;99.90;;;;;;5053545;28;20044;-73
2023/12/16 01:39:55;;;;;;;11.13;2.88;;;5.30;99.90;;;;;;5052683;28;20090;-74
2023/12/16 01:42:23;;;;;;;9.30;2.03;;;5.40;99.90;;;;;;5053051;28;20049;-74
2023/12/16 01:44:48;;;;;;;7.90;2.50;;;5.30;99.90;;;;;;5052826;28;20047;-74
2023/12/16 01:47:15;;;;;;;7.47;2.20;;;6.10;99.90;;;;;;5052134;28;20037;-74
2023/12/16 01:49:41;;;;;;;10.07;2.05;;;5.40;99.90;;;;;;5053380;28;20048;-73
2023/12/16 01:52:07;;;;;;;9.55;1.90;;;5.30;99.90;;;;;;5053016;28;20048;-73
2023/12/16 01:54:33;;;;;;;11.30;2.33;;;5.20;99.90;;;;;;5053780;28;20037;-73
2023/12/16 01:57:00;;;;;;;7.18;1.70;;;5.10;99.90;;;;;;5052783;28;20140;-73
2023/12/16 01:59:27;;;;;;;8.65;2.30;;;5.10;99.90;;;;;;5053530;28;20037;-74
2023/12/16 02:02:03;;;;;;;6.97;2.00;;;5.20;99.90;;;;;;5052725;28;20099;-74
2023/12/16 02:04:29;;;;;;;8.25;2.38;;;5.10;99.90;;;;;;5052859;28;20068;-74
2023/12/16 02:06:55;;;;;;;14.23;3.03;;;5.20;99.90;;;;;;5053363;28;20127;-74
2023/12/16 02:09:24;;;;;;;9.48;2.40;;;5.10;99.90;;;;;;5052073;28;20045;-74
2023/12/16 02:11:52;;;;;;;11.15;2.20;;;5.10;99.90;;;;;;5052432;28;20082;-74
2023/12/16 02:14:18;;;;;;;6.72;2.00;;;5.10;99.90;;;;;;5051597;28;20052;-74
2023/12/16 02:16:46;;;;;;;10.60;2.08;;;5.10;99.90;;;;;;5052477;28;20469;-74
2023/12/16 02:19:18;;;;;;;8.38;2.63;;;5.10;99.90;;;;;;5051925;28;20057;-74
2023/12/16 02:21:43;;;;;;;8.82;2.50;;;5.20;99.90;;;;;;5052048;28;20037;-74
2023/12/16 02:24:09;;;;;;;8.90;2.50;;;5.10;99.90;;;;;;5052286;28;20041;-74
2023/12/16 02:26:34;;;;;;;;;;;5.10;99.90;;;;;;5052922;28;20437;-74
2023/12/16 02:29:00;;;;;;;5.50;1.75;;;5.00;99.90;;;;;;5052218;28;19923;-74
2023/12/16 02:31:26;;;;;;;9.82;2.58;;;5.00;99.90;;;;;;5053454;28;20053;-73
2023/12/16 02:33:51;;;;;;;;;;;5.10;99.90;;;;;;5053936;28;20076;-74
2023/12/16 02:36:17;;;;;;;8.73;2.55;;;5.10;99.90;;;;;;5051113;28;19975;-73
2023/12/16 02:38:43;;;;;;;9.57;2.50;;;5.10;99.90;;;;;;5052560;28;20041;-73
2023/12/16 02:41:09;;;;;;;9.50;2.33;;;5.00;99.90;;;;;;5052090;28;20076;-73
2023/12/16 02:43:34;;;;;;;;;;;5.00;99.90;;;;;;5050915;28;20083;-73
2023/12/16 02:46:00;;;;;;;7.95;2.70;;;5.00;99.90;;;;;;5051585;28;19920;-73
2023/12/16 02:48:25;;;;;;;;;;;4.90;99.90;;;;;;5052506;28;20045;-73
2023/12/16 02:50:51;;;;;;;11.02;2.50;;;4.90;99.90;;;;;;5051193;28;19943;-73
2023/12/16 02:53:16;;;;;;;;;;;4.90;99.90;;;;;;5051985;28;20045;-73
2023/12/16 02:55:42;;;;;;;9.30;2.70;;;5.20;99.90;;;;;;5051272;28;20400;-71
2023/12/16 02:58:07;;;;;;;9.82;2.67;;;4.80;99.90;;;;;;5050710;28;20416;-71
2023/12/16 03:00:35;;;;;;;15.23;2.95;;;4.80;99.90;;;;;;5051858;28;20098;-71
2023/12/16 03:03:01;;;;;;;8.48;2.42;;;4.80;99.90;;;;;;5051821;28;20513;-73
2023/12/16 03:05:27;;;;;;;12.23;2.53;;;4.80;99.90;;;;;;5051768;28;20052;-73
2023/12/16 03:07:52;;;;;;;;;;;4.80;99.90;;;;;;5051856;28;20516;-73
2023/12/16 03:10:18;;;;;;;11.10;2.35;;;5.40;99.90;;;;;;5050625;28;19935;-73
2023/12/16 03:12:44;;;;;;;;;;;4.90;99.90;;;;;;5051843;28;20049;-72
2023/12/16 03:15:10;;;;;;;15.97;2.80;;;4.80;99.90;;;;;;5051179;28;19927;-72
2023/12/16 03:17:36;;;;;;;10.60;2.38;;;4.80;99.90;;;;;;5050483;28;20295;-72
2023/12/16 03:20:03;;;;;;;13.50;2.70;;;4.70;99.90;;;;;;5051004;28;20048;-72
2023/12/16 03:22:29;;;;;;;8.77;3.30;;;4.70;99.90;;;;;;5050423;28;20037;-73
2023/12/16 03:24:54;;;;;;;16.83;2.95;;;5.60;99.90;;;;;;5050417;28;20045;-72
2023/12/16 03:27:20;;;;;;;;;;;5.10;99.90;;;;;;5052235;28;20444;-73
2023/12/16 03:29:45;;;;;;;14.10;3.00;;;4.90;99.90;;;;;;5051510;28;19921;-72
2023/12/16 03:32:11;;;;;;;;;;;4.90;99.90;;;;;;5050591;28;20124;-72
2023/12/16 03:34:37;;;;;;;17.15;4.32;;;5.00;99.90;;;;;;5051284;28;20265;-73
2023/12/16 03:37:03;;;;;;;13.25;2.65;;;5.00;99.90;;;;;;5050632;28;20049;-73
2023/12/16 03:39:28;;;;;;;14.93;3.75;;;5.10;99.90;;;;;;5050708;28;20102;-73
2023/12/16 03:41:54;;;;;;;;;;;5.10;99.90;;;;;;5051668;28;20484;-72
2023/12/16 03:44:19;;;;;;;14.93;3.03;;;5.20;99.90;;;;;;5051170;28;20011;-72
2023/12/16 03:46:45;;;;;;;17.25;3.30;;;5.20;99.90;;;;;;5050835;28;20037;-72
2023/12/16 03:49:13;;;;;;;14.70;2.70;;;5.20;99.90;;;;;;5050992;28;20045;-73
2023/12/16 03:51:39;;;;;;;20.58;3.60;;;5.20;99.90;;;;;;5052576;28;20183;-72
2023/12/16 03:54:05;;;;;;;19.38;2.88;;;5.20;99.90;;;;;;5050102;28;20037;-72
2023/12/16 03:56:31;;;;;;;19.45;3.30;;;5.40;99.90;;;;;;5050792;28;20072;-73
2023/12/16 03:58:56;;;;;;;17.10;3.17;;;5.40;99.90;;;;;;5050783;28;20131;-73
2023/12/16 04:01:23;;;;;;;16.17;3.20;;;5.40;99.90;;;;;;5051009;28;20097;-72
2023/12/16 04:03:48;;;;;;;17.45;3.55;;;5.40;99.90;;;;;;5051115;28;20045;-72
2023/12/16 04:06:14;;;;;;;14.13;3.53;;;5.40;99.90;;;;;;5049774;28;20052;-73
2023/12/16 04:08:41;;;;;;;13.73;3.00;;;5.40;99.90;;;;;;5050953;28;20041;-72
2023/12/16 04:11:07;;;;;;;15.05;3.42;;;5.40;99.90;;;;;;5050789;28;20049;-72
2023/12/16 04:13:36;;;;;;;18.70;4.13;;;5.40;99.90;;;;;;5050157;28;20037;-73
2023/12/16 04:16:03;;;;;;;14.45;3.10;;;5.40;99.90;;;;;;5051085;28;20400;-72
2023/12/16 04:18:32;;;;;;;11.60;2.78;;;5.50;99.90;;;;;;5051030;28;20072;-72
2023/12/16 04:20:59;;;;;;;16.27;3.65;;;5.60;99.90;;;;;;5050439;28;20426;-72
2023/12/16 04:23:25;;;;;;;24.23;3.95;;;6.00;99.90;;;;;;5050609;28;20044;-73
2023/12/16 04:25:50;;;;;;;16.90;3.83;;;5.90;99.90;;;;;;5050721;28;20045;-73
2023/12/16 04:28:16;;;;;;;;;;;5.60;99.90;;;;;;5050274;28;20092;-72
2023/12/16 04:30:41;;;;;;;16.52;3.38;;;6.10;99.90;;;;;;5050763;28;19924;-73
2023/12/16 04:33:07;;;;;;;15.13;3.20;;;5.70;99.90;;;;;;5050425;28;20033;-73
2023/12/16 04:35:33;;;;;;;14.48;3.30;;;5.80;99.90;;;;;;5052034;28;20446;-73
2023/12/16 04:37:58;;;;;;;;;;;5.90;99.90;;;;;;5054016;28;20045;-74
2023/12/16 04:40:24;;;;;;;15.45;3.17;;;5.90;99.90;;;;;;5053331;28;19920;-73
2023/12/16 04:42:49;;;;;;;14.80;3.53;;;6.00;99.90;;;;;;5052624;28;20037;-73
2023/12/16 04:45:15;;;;;;;14.48;3.92;;;6.00;99.90;;;;;;5053696;28;20068;-73
2023/12/16 04:47:41;;;;;;;15.30;3.40;;;6.30;99.90;;;;;;5054175;28;20122;-72
2023/12/16 04:50:06;;;;;;;;;;;6.10;99.90;;;;;;5053745;28;20392;-73
2023/12/16 04:52:32;;;;;;;14.23;3.15;;;6.10;99.90;;;;;;5055389;28;19932;-72
2023/12/16 04:54:58;;;;;;;20.35;3.65;;;6.20;99.90;;;;;;5054416;28;20044;-73
2023/12/16 04:57:26;;;;;;;17.30;4.00;;;6.10;99.90;;;;;;5053896;28;20426;-73
2023/12/16 04:59:51;;;;;;;18.23;4.40;;;6.10;99.90;;;;;;5054364;28;20155;-72
2023/12/16 05:02:17;;;;;;;14.45;3.55;;;6.10;99.90;;;;;;5054517;28;20127;-72
2023/12/16 05:04:43;;;;;;;;;;;6.20;99.90;;;;;;5054596;28;20037;-72
2023/12/16 05:07:09;;;;;;;21.70;4.22;;;6.20;99.90;;;;;;5052773;28;20360;-72
2023/12/16 05:09:34;;;;;;;20.58;4.20;;;6.30;99.90;;;;;;5053203;28;20049;-72
2023/12/16 05:12:00;;;;;;;17.58;4.13;;;6.30;99.90;;;;;;5053762;28;20486;-73
2023/12/16 05:14:25;;;;;;;17.88;3.58;;;6.50;99.90;;;;;;5054114;28;20049;-72
2023/12/16 05:16:51;;;;;;;20.15;3.60;;;6.60;99.90;;;;;;5053206;28;20382;-73
2023/12/16 05:19:16;;;;;;;;;;;6.30;99.90;;;;;;5053803;28;20136;-73
2023/12/16 05:21:42;;;;;;;15.68;3.83;;;6.40;99.90;;;;;;5053589;28;19921;-73
2023/12/16 05:24:08;;;;;;;15.25;4.40;;;6.40;99.90;;;;;;5052866;28;20045;-72
2023/12/16 05:26:33;;;;;;;;;;;6.40;99.90;;;;;;5053652;28;20045;-73
2023/12/16 05:28:59;;;;;;;20.70;4.82;;;6.30;99.90;;;;;;5054107;28;19921;-72
2023/12/16 05:31:24;;;;;;;;;;;6.30;99.90;;;;;;5053324;28;20041;-72
2023/12/16 05:33:50;;;;;;;19.17;4.63;;;6.30;99.90;;;;;;5053917;28;19927;-72
2023/12/16 05:36:16;;;;;;;16.02;4.00;;;6.40;99.90;;;;;;5053147;28;20435;-72
2023/12/16 05:38:42;;;;;;;23.05;4.78;;;6.40;99.90;;;;;;5052611;28;20091;-73
2023/12/16 05:41:08;;;;;;;27.05;5.57;;;6.50;99.90;;;;;;5053277;28;20041;-73
2023/12/16 05:43:36;;;;;;;20.38;4.55;;;6.40;99.90;;;;;;5053308;28;20128;-73
2023/12/16 05:46:02;;;;;;;21.73;4.78;;;6.50;99.90;;;;;;5051187;28;20124;-72
2023/12/16 05:48:27;;;;;;;19.33;4.70;;;6.50;99.90;;;;;;5053121;28;20045;-73
2023/12/16 05:50:53;;;;;;;20.38;4.30;;;6.60;99.90;;;;;;5053172;28;20077;-72
2023/12/16 05:53:18;;;;;;;22.60;4.50;;;6.60;99.90;;;;;;5052294;28;20057;-72
2023/12/16 05:55:47;;;;;;;27.65;5.07;;;6.70;99.90;;;;;;5053376;28;20123;-73
2023/12/16 05:58:12;;;;;;;24.42;5.18;;;6.80;99.90;;;;;;5052347;28;20057;-72
2023/12/16 06:00:38;;;;;;;19.60;4.38;;;7.10;99.90;;;;;;5051913;28;20425;-74
2023/12/16 06:03:04;;;;;;;25.75;4.85;;;6.90;99.90;;;;;;5052455;28;20044;-73
2023/12/16 06:05:33;;;;;;;31.30;5.80;;;7.00;99.90;;;;;;5051460;28;20420;-73
2023/12/16 06:07:58;;;;;;;26.10;5.40;;;7.80;99.90;;;;;;5052500;28;20044;-73
2023/12/16 06:10:27;;;;;;;22.17;4.57;;;7.10;99.90;;;;;;5054295;28;20045;-73
2023/12/16 06:12:52;;;;;;;27.30;5.55;;;7.10;99.90;;;;;;5052203;28;20045;-73
2023/12/16 06:15:18;;;;;;;17.17;4.43;;;7.10;99.90;;;;;;5052423;28;20565;-72
2023/12/16 06:17:43;;;;;;;29.40;6.03;;;7.20;99.90;;;;;;5052824;28;20059;-73
2023/12/16 06:20:09;;;;;;;20.55;4.75;;;7.20;99.90;;;;;;5052643;28;20408;-73
2023/12/16 06:22:35;;;;;;;24.52;5.18;;;7.20;99.90;;;;;;5051811;28;20040;-73
2023/12/16 06:25:03;;;;;;;;;;;7.20;99.90;;;;;;5053366;28;20435;-73
2023/12/16 06:27:30;;;;;;;19.88;5.00;;;7.30;99.90;;;;;;5052985;28;19928;-73
2023/12/16 06:29:56;;;;;;;28.27;6.28;;;7.30;99.90;;;;;;5052442;28;20132;-73
2023/12/16 06:32:21;;;;;;;25.65;5.90;;;7.40;99.90;;;;;;5052509;28;20128;-73
2023/12/16 06:34:50;;;;;;;;;;;7.30;99.90;;;;;;5051234;28;20045;-73
2023/12/16 06:37:15;;;;;;;25.33;5.18;;;7.50;99.90;;;;;;5053542;28;19968;-73
2023/12/16 06:39:44;;;;;;;28.20;6.45;;;7.50;99.90;;;;;;5053345;28;20079;-73
2023/12/16 06:42:09;;;;;;;30.00;6.20;;;7.70;99.90;;;;;;5051443;28;20037;-72
2023/12/16 06:44:38;;;;;;;30.73;6.78;;;7.30;99.90;;;;;;5053007;28;20515;-73
2023/12/16 06:47:04;;;;;;;27.02;5.97;;;7.30;99.90;;;;;;5051838;28;20041;-73
2023/12/16 06:49:32;;;;;;;28.27;6.20;;;7.30;99.90;;;;;;5052588;28;20041;-73
2023/12/16 06:51:57;;;;;;;23.50;6.22;;;7.70;99.90;;;;;;5053542;28;20037;-73
2023/12/16 06:54:23;;;;;;;31.27;6.38;;;7.30;99.90;;;;;;5051520;28;20065;-72
2023/12/16 06:56:49;;;;;;;17.17;5.93;;;7.30;99.90;;;;;;5050812;28;20041;-72
2023/12/16 06:59:17;;;;;;;26.15;6.13;;;7.30;99.90;;;;;;5034114;28;20044;-72
2023/12/16 07:01:42;;;;;;;27.10;6.07;;;7.30;99.90;;;;;;5051059;28;20076;-72
2023/12/16 07:04:08;;;;;;;28.35;6.13;;;7.30;99.90;;;;;;5051673;28;20162;-72
2023/12/16 07:06:34;;;;;;;;;;;7.30;99.90;;;;;;5051911;28;20099;-72
2023/12/16 07:09:00;;;;;;;21.40;5.22;;;7.30;99.90;;;;;;5050956;28;20687;-73
2023/12/16 07:11:25;;;;;;;;;;;7.30;99.90;;;;;;5051064;28;20123;-72
2023/12/16 07:13:51;;;;;;;28.67;6.25;;;8.00;99.90;;;;;;5051247;28;20388;-73
2023/12/16 07:16:16;;;;;;;;;;;7.30;99.90;;;;;;5050787;28;20049;-72
2023/12/16 07:18:42;;;;;;;23.75;5.88;;;7.40;99.90;;;;;;5051597;28;19936;-72
2023/12/16 07:21:08;;;;;;;24.40;5.93;;;7.60;99.90;;;;;;5051538;28;20040;-72
2023/12/16 07:23:34;;;;;;;17.85;5.03;;;7.40;99.90;;;;;;5052299;28;20045;-72
2023/12/16 07:26:00;;;;;;;25.50;5.70;;;8.00;99.90;;;;;;5052154;28;20404;-72
2023/12/16 07:28:26;;;;;;;20.33;5.95;;;7.50;99.90;;;;;;5050866;28;20480;-72
2023/12/16 07:30:52;;;;;;;29.10;6.32;;;7.50;99.90;;;;;;5050681;28;20140;-72
2023/12/16 07:33:17;;;;;;;22.90;5.93;;;7.80;99.90;;;;;;5050917;28;20142;-72
2023/12/16 07:35:44;;;;;;;29.58;6.13;;;7.80;99.90;;;;;;5050382;28;20095;-73
2023/12/16 07:38:10;;;;;;;30.63;6.05;;;7.90;99.90;;;;;;5048107;28;20076;-72
2023/12/16 07:40:36;;;;;;;28.80;5.35;;;8.50;99.90;;;;;;5049874;28;20472;-72
2023/12/16 07:43:02;;;;;;;25.20;5.53;;;8.00;99.90;;;;;;5050150;28;20389;-71
2023/12/16 07:45:28;;;;;;;26.40;5.93;;;8.10;99.90;;;;;;5048821;28;20484;-72
2023/12/16 07:47:54;;;;;;;23.83;5.72;;;8.20;99.90;;;;;;5050272;28;20041;-71
2023/12/16 07:50:21;;;;;;;24.95;5.93;;;8.30;99.90;;;;;;5050458;28;20111;-72
2023/12/16 07:52:47;;;;;;;25.80;5.97;;;8.30;99.90;;;;;;5050202;28;20043;-72
2023/12/16 07:55:13;;;;;;;27.73;6.00;;;8.30;99.90;;;;;;5050744;28;20057;-72
2023/12/16 07:57:39;;;;;;;27.02;5.85;;;8.30;99.90;;;;;;5051272;28;20048;-72
2023/12/16 08:00:05;;;;;;;20.13;5.18;;;8.70;99.90;;;;;;5050268;28;20044;-72
2023/12/16 08:02:31;;;;;;;23.92;5.70;;;8.40;99.90;;;;;;5052226;28;20489;-72
2023/12/16 08:04:57;;;;;;;20.00;5.88;;;8.40;99.90;;;;;;5044573;28;20053;-73
2023/12/16 08:07:23;;;;;;;26.17;6.50;;;8.50;99.90;;;;;;5038655;28;20052;-72
2023/12/16 08:09:49;;;;;;;28.55;5.53;;;8.50;99.90;;;;;;5053119;28;20045;-72
2023/12/16 08:12:15;;;;;;;20.63;5.07;;;8.40;99.90;;;;;;5054161;28;20033;-72
2023/12/16 08:14:40;;;;;;;28.60;6.35;;;8.40;99.90;;;;;;5054798;28;20489;-74
2023/12/16 08:17:06;;;;;;;27.00;6.10;;;8.40;99.90;;;;;;5054541;28;20079;-73
2023/12/16 08:19:35;;;;;;;27.48;6.65;;;8.50;99.90;;;;;;5053819;28;20053;-74
2023/12/16 08:22:02;;;;;;;30.55;6.05;;;8.50;99.90;;;;;;5054235;28;20044;-74
2023/12/16 08:24:29;;;;;;;25.30;6.32;;;8.40;99.90;;;;;;5054217;28;20051;-73
2023/12/16 08:26:55;;;;;;;24.15;5.78;;;8.50;99.90;;;;;;5053895;28;20036;-73
2023/12/16 08:29:20;;;;;;;21.35;4.93;;;8.50;99.90;;;;;;5054408;28;20186;-78
2023/12/16 08:31:46;;;;;;;26.05;5.28;;;8.60;99.90;;;;;;5054131;28;20037;-71
2023/12/16 08:34:12;;;;;;;25.25;5.40;;;8.60;99.90;;;;;;5053390;28;20052;-72
2023/12/16 08:36:38;;;;;;;21.00;4.85;;;8.60;99.90;;;;;;5053632;28;20053;-73
2023/12/16 08:39:04;;;;;;;19.73;5.60;;;8.60;99.90;;;;;;5054007;28;20048;-72
2023/12/16 08:41:30;;;;;;;31.85;6.47;;;8.70;99.90;;;;;;5053321;28;20072;-70
2023/12/16 08:43:55;;;;;;;26.08;5.97;;;9.10;99.90;;;;;;5054603;28;20052;-72
2023/12/16 08:46:23;;;;;;;;;;;8.60;99.90;;;;;;5054703;28;20399;-71
2023/12/16 08:48:49;;;;;;;30.70;6.30;;;8.70;99.90;;;;;;5053326;28;19943;-71
2023/12/16 08:51:21;;;;;;;31.33;5.28;;;8.90;99.90;;;;;;5053703;28;20049;-71
2023/12/16 08:53:47;;;;;;;27.33;7.07;;;8.60;99.90;;;;;;5050557;28;20051;-72
2023/12/16 08:56:14;;;;;;;29.27;6.15;;;8.70;99.90;;;;;;5052632;28;20407;-73
2023/12/16 08:58:39;;;;;;;24.52;4.85;;;9.40;99.90;;;;;;5054006;28;20441;-72
2023/12/16 09:01:06;;;;;;;22.95;4.75;;;8.70;99.90;;;;;;5053692;28;20084;-72
2023/12/16 09:03:32;;;;;;;21.88;4.80;;;8.70;99.90;;;;;;5052858;28;20121;-72
2023/12/16 09:05:57;;;;;;;21.75;4.60;;;8.70;99.90;;;;;;5053691;28;20123;-72
2023/12/16 09:08:23;;;;;;;22.25;5.20;;;8.70;99.90;;;;;;5052586;28;20091;-71
2023/12/16 09:10:48;;;;;;;27.63;5.35;;;8.70;99.90;;;;;;5054089;28;20049;-70
2023/12/16 09:13:14;;;;;;;27.80;6.03;;;8.70;99.90;;;;;;5053432;28;20507;-70
2023/12/16 09:15:40;;;;;;;19.27;5.68;;;8.70;99.90;;;;;;5053257;28;20076;-69
2023/12/16 09:18:06;;;;;;;29.33;5.85;;;8.70;99.90;;;;;;5048458;28;20045;-70
2023/12/16 09:20:31;;;;;;;25.35;5.05;;;9.00;99.90;;;;;;5052986;28;20052;-72
2023/12/16 09:23:00;;;;;;;30.80;6.20;;;8.70;99.90;;;;;;5050213;28;20057;-72
2023/12/16 09:25:25;;;;;;;19.13;5.47;;;9.00;99.90;;;;;;5051838;28;20045;-72
2023/12/16 09:27:51;;;;;;;26.38;5.80;;;8.70;99.90;;;;;;5051600;28;20036;-70
2023/12/16 09:30:19;;;;;;;26.00;6.72;;;8.70;99.90;;;;;;5051034;28;20060;-70
2023/12/16 09:32:45;;;;;;;36.95;7.00;;;8.70;99.90;;;;;;5051944;28;20049;-70
2023/12/16 09:35:11;;;;;;;26.55;6.65;;;8.70;99.90;;;;;;5051313;28;20053;-71
2023/12/16 09:37:36;;;;;;;19.92;6.47;;;8.70;99.90;;;;;;5049361;28;20048;-70
2023/12/16 09:40:02;;;;;;;21.30;6.30;;;9.10;99.90;;;;;;5050686;28;20048;-70
2023/12/16 09:42:29;;;;;;;21.58;5.90;;;8.80;99.90;;;;;;5051118;28;20041;-71
2023/12/16 09:44:59;;;;;;;22.17;6.30;;;9.20;99.90;;;;;;5049888;28;20048;-71
2023/12/16 09:47:25;;;;;;;29.17;6.15;;;8.70;99.90;;;;;;5050877;28;20039;-71
2023/12/16 09:49:53;;;;;;;17.98;6.13;;;8.80;99.90;;;;;;5050862;28;20115;-70
2023/12/16 09:52:19;;;;;;;23.65;6.13;;;8.80;99.90;;;;;;5048698;28;20048;-71
2023/12/16 09:54:44;;;;;;;23.88;6.78;;;9.20;99.90;;;;;;5051228;28;20117;-71
2023/12/16 09:57:13;;;;;;;23.90;6.68;;;8.70;99.90;;;;;;5050771;28;20076;-71
2023/12/16 09:59:41;;;;;;;23.98;7.07;;;8.70;99.90;;;;;;5050282;28;20045;-71
2023/12/16 10:02:14;;;;;;;18.83;6.60;;;8.60;99.90;;;;;;5049381;28;20488;-71
2023/12/16 10:04:40;;;;;;;18.50;6.47;;;8.60;99.90;;;;;;5050611;28;20045;-71
2023/12/16 10:07:08;;;;;;;23.63;6.90;;;8.60;99.90;;;;;;5050773;28;20118;-72
2023/12/16 10:09:34;;;;;;;18.77;6.30;;;8.60;99.90;;;;;;5050193;28;20599;-71
2023/12/16 10:12:00;;;;;;;21.23;6.85;;;8.60;99.90;;;;;;5051475;28;20112;-71
2023/12/16 10:14:26;;;;;;;22.27;6.78;;;8.70;99.90;;;;;;5052737;28;20150;-71
2023/12/16 10:17:04;;;;;;;24.88;7.10;;;8.60;99.90;;;;;;5054069;28;20194;-71
2023/12/16 10:19:33;;;;;;;15.68;6.15;;;8.70;99.90;;;;;;5052118;28;20060;-71
2023/12/16 10:21:58;;;;;;;22.77;7.40;;;8.90;99.90;;;;;;5052673;28;20048;-71
2023/12/16 10:24:24;;;;;;;22.90;7.53;;;8.80;99.90;;;;;;5051941;28;20452;-71
2023/12/16 10:26:49;;;;;;;25.83;7.93;;;8.60;99.90;;;;;;5051206;28;20505;-71
2023/12/16 10:29:19;;;;;;;21.83;7.47;;;8.60;99.90;;;;;;5052449;28;20397;-71
2023/12/16 10:31:44;;;;;;;18.20;6.75;;;8.60;99.90;;;;;;5052222;28;20048;-71
2023/12/16 10:34:11;;;;;;;23.92;6.60;;;8.60;99.90;;;;;;5051300;28;20071;-71
2023/12/16 10:36:37;;;;;;;17.30;6.30;;;9.50;99.90;;;;;;5051768;28;20128;-71
2023/12/16 10:39:02;;;;;;;19.60;6.10;;;8.70;99.90;;;;;;5051425;28;20519;-70
2023/12/16 10:41:28;;;;;;;18.45;6.63;;;8.70;99.90;;;;;;5052244;28;20052;-72
2023/12/16 10:43:54;;;;;;;19.88;6.55;;;8.80;99.90;;;;;;5051965;28;20060;-75
2023/12/16 10:46:21;;;;;;;19.13;5.47;;;8.70;99.90;;;;;;5052710;28;20068;-74
2023/12/16 10:48:48;;;;;;;15.18;5.60;;;8.90;99.90;;;;;;5051111;28;20053;-74
2023/12/16 10:51:18;;;;;;;17.55;5.95;;;8.90;99.90;;;;;;5051432;28;20071;-78
2023/12/16 10:54:05;;;;;;;16.55;6.30;;;9.40;99.90;;;;;;5052034;28;20044;-74
2023/12/16 10:56:36;;;;;;;14.82;6.43;;;8.90;99.90;;;;;;5051405;28;20126;-78
2023/12/16 10:59:12;;;;;;;14.90;6.50;;;9.30;99.90;;;;;;5051432;28;20504;-73
2023/12/16 11:01:41;;;;;;;16.80;5.78;;;8.90;99.90;;;;;;5051297;28;20374;-74
2023/12/16 11:04:12;;;;;;;12.32;5.80;;;8.90;99.90;;;;;;5051139;28;20041;-73
2023/12/16 11:07:04;;;;;;;14.23;5.72;;;9.50;99.90;;;;;;5051641;28;20123;-73
2023/12/16 11:09:30;;;;;;;15.35;5.40;;;9.10;99.90;;;;;;5050478;28;20049;-71
2023/12/16 11:12:00;;;;;;;14.80;6.15;;;9.10;99.90;;;;;;5050638;28;20381;-71
2023/12/16 11:14:27;;;;;;;16.00;5.63;;;9.10;99.90;;;;;;5051597;28;20052;-69
2023/12/16 11:17:14;;;;;;;15.00;6.10;;;9.10;99.90;;;;;;5051664;28;20434;-68
2023/12/16 11:19:46;;;;;;;17.17;5.45;;;9.00;99.90;;;;;;5051004;28;20056;-70
2023/12/16 11:22:16;;;;;;;15.13;5.57;;;9.00;99.90;;;;;;5050288;28;20159;-70
2023/12/16 11:24:44;;;;;;;13.48;5.15;;;9.00;99.90;;;;;;5051315;28;20074;-70
2023/12/16 11:27:10;;;;;;;16.35;5.50;;;9.10;99.90;;;;;;5050560;28;20049;-73
2023/12/16 11:29:36;;;;;;;14.63;6.45;;;9.20;99.90;;;;;;5048161;28;20267;-72
2023/12/16 11:32:03;;;;;;;14.75;5.68;;;9.70;99.90;;;;;;5048969;28;20037;-72
2023/12/16 11:34:52;;;;;;;12.57;6.50;;;9.10;99.90;;;;;;5049206;28;20098;-73
2023/12/16 11:37:36;;;;;;;15.23;8.38;;;9.20;99.90;;;;;;5047735;28;20550;-71
2023/12/16 11:40:07;;;;;;;12.80;5.70;;;9.20;99.90;;;;;;5048965;28;20051;-72
2023/12/16 11:42:48;;;;;;;13.60;5.03;;;9.20;99.90;;;;;;5050276;28;20404;-79
2023/12/16 11:45:35;;;;;;;11.90;5.20;;;9.60;99.90;;;;;;5048795;28;20071;-77
2023/12/16 11:48:01;;;;;;;14.73;5.22;;;9.90;99.90;;;;;;5030782;28;20128;-79
2023/12/16 11:50:26;;;;;;;15.55;5.30;;;9.80;99.90;;;;;;5043962;28;20182;-76
2023/12/16 11:52:52;;;;;;;19.00;5.70;;;9.20;99.90;;;;;;5046743;28;20429;-76
2023/12/16 11:55:19;;;;;;;19.98;4.88;;;9.20;99.90;;;;;;5048391;28;20155;-76
2023/12/16 11:57:48;;;;;;;13.48;5.80;;;10.00;99.90;;;;;;5049216;28;20045;-76
2023/12/16 12:00:16;;;;;;;16.45;6.15;;;9.30;99.90;;;;;;5049476;28;20056;-74
2023/12/16 12:02:45;;;;;;;16.77;5.00;;;9.40;99.90;;;;;;5049144;28;20067;-79
2023/12/16 12:05:14;;;;;;;17.73;7.40;;;9.40;99.90;;;;;;5047748;28;20171;-74
2023/12/16 12:07:40;;;;;;;15.35;5.40;;;9.30;99.90;;;;;;5050014;28;20044;-75
2023/12/16 12:10:05;;;;;;;13.57;4.47;;;9.30;99.90;;;;;;5049082;28;20056;-75
2023/12/16 12:12:31;;;;;;;14.15;5.15;;;9.30;99.90;;;;;;5048955;28;20041;-77
2023/12/16 12:14:57;;;;;;;15.80;5.97;;;9.30;99.90;;;;;;5049944;28;20503;-78
2023/12/16 12:17:26;;;;;;;17.70;8.98;;;9.40;99.90;;;;;;5049503;28;20503;-75
2023/12/16 12:19:52;;;;;;;15.13;5.25;;;9.60;99.90;;;;;;5049717;28;20392;-73
2023/12/16 12:22:20;;;;;;;18.15;6.85;;;9.40;99.90;;;;;;5049424;28;20037;-73
2023/12/16 12:24:45;;;;;;;21.52;6.03;;;9.80;99.90;;;;;;5049155;28;20364;-74
2023/12/16 12:27:11;;;;;;;16.83;5.68;;;9.40;99.90;;;;;;5049875;28;20056;-74
2023/12/16 12:30:04;;;;;;;10.77;4.80;;;9.70;99.90;;;;;;5048862;28;20075;-73
2023/12/16 12:32:31;;;;;;;12.10;5.10;;;9.50;99.90;;;;;;5048286;28;20088;-74
2023/12/16 12:35:03;;;;;;;13.90;5.70;;;9.50;99.90;;;;;;5048299;28;20132;-74
2023/12/16 12:37:38;;;;;;;19.17;6.53;;;9.50;99.90;;;;;;5043526;28;20056;-75
2023/12/16 12:40:05;;;;;;;17.58;5.38;;;9.50;99.90;;;;;;5048088;28;20045;-75
2023/12/16 12:43:03;;;;;;;11.60;4.55;;;9.50;99.90;;;;;;5032871;28;20485;-75
2023/12/16 12:45:34;;;;;;;14.10;4.63;;;9.50;99.90;;;;;;5017024;28;20065;-75
2023/12/16 12:48:12;;;;;;;11.40;5.32;;;9.50;99.90;;;;;;5048473;28;20102;-75
2023/12/16 12:50:38;;;;;;;14.68;4.75;;;9.50;99.90;;;;;;5048934;28;20049;-74
2023/12/16 12:53:20;;;;;;;11.10;4.80;;;9.50;99.90;;;;;;5048684;28;20431;-77
2023/12/16 12:55:47;;;;;;;10.50;4.10;;;9.50;99.90;;;;;;5050021;28;20049;-77